LGX37B EPWA-LHBP
Flight info
| Callsign | LGX37B |
|---|---|
| Flight time | 0h 51m |
| Altitude | 36000 |
| Route | EVINA DCT KUKAM DCT BABKO/N0463F350 DCT ULPUK DCT EDEMU |
| Aircraft | B38M/M-SDE1FGHILORVWXY/HB1 |
Departure
| Time | 2026-05-07 07:50 |
|---|---|
| Airport | Warsaw Chopin Airport (EPWA) |
Arrival
| Time | 2026-05-07 08:41 |
|---|---|
| Airport | Budapest Liszt Ferenc International Airport (LHBP) |
| Time | Latitude | Longitude | Altitude | Speed | Heading |
|---|---|---|---|---|---|
| 2026-05-07 07:41 | 52.17088 | 20.96773 | 333 ft | 0 kts | 276° |
| 2026-05-07 07:46 | 52.17088 | 20.96770 | 338 ft | 1 kts | 276° |
| 2026-05-07 07:46 | 52.17090 | 20.96752 | 338 ft | 2 kts | 276° |
| 2026-05-07 07:46 | 52.17090 | 20.96750 | 337 ft | 0 kts | 276° |
| 2026-05-07 07:47 | 52.17087 | 20.96731 | 338 ft | 7 kts | 246° |
| 2026-05-07 07:47 | 52.16987 | 20.96751 | 338 ft | 20 kts | 153° |
| 2026-05-07 07:47 | 52.16865 | 20.96859 | 335 ft | 20 kts | 153° |
| 2026-05-07 07:47 | 52.16738 | 20.96970 | 336 ft | 21 kts | 152° |
| 2026-05-07 07:48 | 52.16628 | 20.97104 | 336 ft | 20 kts | 98° |
| 2026-05-07 07:48 | 52.16590 | 20.97319 | 336 ft | 20 kts | 114° |
| 2026-05-07 07:48 | 52.16532 | 20.97528 | 338 ft | 20 kts | 114° |
| 2026-05-07 07:48 | 52.16472 | 20.97739 | 338 ft | 21 kts | 114° |
| 2026-05-07 07:49 | 52.16358 | 20.97763 | 338 ft | 20 kts | 204° |
| 2026-05-07 07:49 | 52.16332 | 20.97575 | 334 ft | 29 kts | 294° |
| 2026-05-07 07:49 | 52.16516 | 20.96920 | 333 ft | 99 kts | 294° |
| 2026-05-07 07:49 | 52.16887 | 20.95589 | 411 ft | 150 kts | 295° |
| 2026-05-07 07:50 | 52.17325 | 20.94029 | 1178 ft | 153 kts | 296° |
| 2026-05-07 07:50 | 52.17793 | 20.92414 | 1931 ft | 167 kts | 295° |
| 2026-05-07 07:50 | 52.18116 | 20.91221 | 2320 ft | 180 kts | 292° |
| 2026-05-07 07:50 | 52.18450 | 20.89141 | 2911 ft | 204 kts | 271° |
| 2026-05-07 07:51 | 52.18162 | 20.86808 | 3888 ft | 210 kts | 250° |
| 2026-05-07 07:51 | 52.17644 | 20.84467 | 4712 ft | 229 kts | 250° |
| 2026-05-07 07:51 | 52.17100 | 20.81935 | 5492 ft | 246 kts | 243° |
| 2026-05-07 07:51 | 52.15940 | 20.79819 | 6283 ft | 261 kts | 210° |
| 2026-05-07 07:52 | 52.14266 | 20.78567 | 7242 ft | 269 kts | 201° |
| 2026-05-07 07:52 | 52.12473 | 20.77579 | 8281 ft | 275 kts | 197° |
| 2026-05-07 07:52 | 52.10627 | 20.76668 | 9335 ft | 279 kts | 197° |
| 2026-05-07 07:52 | 52.08767 | 20.75711 | 10326 ft | 284 kts | 198° |
| 2026-05-07 07:53 | 52.06832 | 20.74646 | 10892 ft | 303 kts | 199° |
| 2026-05-07 07:53 | 52.04790 | 20.73481 | 11432 ft | 320 kts | 200° |
| 2026-05-07 07:53 | 52.02629 | 20.72251 | 11922 ft | 337 kts | 200° |
| 2026-05-07 07:53 | 52.00356 | 20.70976 | 12417 ft | 352 kts | 199° |
| 2026-05-07 07:54 | 51.98006 | 20.69671 | 13160 ft | 360 kts | 199° |
| 2026-05-07 07:54 | 51.95650 | 20.68366 | 13966 ft | 365 kts | 199° |
| 2026-05-07 07:54 | 51.93232 | 20.67024 | 14773 ft | 369 kts | 199° |
| 2026-05-07 07:54 | 51.90787 | 20.65664 | 15538 ft | 373 kts | 199° |
| 2026-05-07 07:55 | 51.88320 | 20.64295 | 16279 ft | 377 kts | 199° |
| 2026-05-07 07:55 | 51.85819 | 20.62910 | 16967 ft | 381 kts | 199° |
| 2026-05-07 07:55 | 51.83303 | 20.61517 | 17642 ft | 385 kts | 199° |
| 2026-05-07 07:55 | 51.80754 | 20.60107 | 18301 ft | 389 kts | 199° |
| 2026-05-07 07:56 | 51.78178 | 20.58685 | 18938 ft | 393 kts | 199° |
| 2026-05-07 07:56 | 51.75584 | 20.57257 | 19572 ft | 395 kts | 200° |
| 2026-05-07 07:56 | 51.72971 | 20.55818 | 20164 ft | 398 kts | 199° |
| 2026-05-07 07:56 | 51.70338 | 20.54370 | 20745 ft | 401 kts | 199° |
| 2026-05-07 07:57 | 51.67685 | 20.52912 | 21305 ft | 404 kts | 199° |
| 2026-05-07 07:57 | 51.65008 | 20.51442 | 21855 ft | 407 kts | 199° |
| 2026-05-07 07:57 | 51.62318 | 20.49969 | 22403 ft | 410 kts | 199° |
| 2026-05-07 07:57 | 51.59608 | 20.48485 | 22922 ft | 413 kts | 199° |
| 2026-05-07 07:58 | 51.56879 | 20.46994 | 23432 ft | 416 kts | 199° |
| 2026-05-07 07:58 | 51.54132 | 20.45494 | 23933 ft | 418 kts | 199° |
| 2026-05-07 07:58 | 51.51368 | 20.43985 | 24415 ft | 421 kts | 199° |
| 2026-05-07 07:58 | 51.48585 | 20.42470 | 24882 ft | 424 kts | 199° |
| 2026-05-07 07:59 | 51.45782 | 20.40947 | 25333 ft | 427 kts | 199° |
| 2026-05-07 07:59 | 51.42961 | 20.39416 | 25764 ft | 430 kts | 199° |
| 2026-05-07 07:59 | 51.40116 | 20.37874 | 26184 ft | 432 kts | 199° |
| 2026-05-07 07:59 | 51.37258 | 20.36325 | 26601 ft | 435 kts | 199° |
| 2026-05-07 08:00 | 51.34383 | 20.34771 | 26979 ft | 437 kts | 200° |
| 2026-05-07 08:00 | 51.31520 | 20.33225 | 27350 ft | 440 kts | 199° |
| 2026-05-07 08:00 | 51.28611 | 20.31654 | 27713 ft | 443 kts | 200° |
| 2026-05-07 08:00 | 51.25687 | 20.30077 | 28084 ft | 445 kts | 200° |
| 2026-05-07 08:01 | 51.22744 | 20.28492 | 28435 ft | 447 kts | 200° |
| 2026-05-07 08:01 | 51.19791 | 20.26906 | 28758 ft | 449 kts | 200° |
| 2026-05-07 08:01 | 51.16822 | 20.25314 | 29088 ft | 451 kts | 200° |
| 2026-05-07 08:01 | 51.13837 | 20.23715 | 29411 ft | 453 kts | 200° |
| 2026-05-07 08:02 | 51.10849 | 20.22116 | 29846 ft | 452 kts | 200° |
| 2026-05-07 08:02 | 51.07860 | 20.20519 | 30272 ft | 451 kts | 200° |
| 2026-05-07 08:02 | 51.04890 | 20.18932 | 30692 ft | 450 kts | 199° |
| 2026-05-07 08:02 | 51.01917 | 20.17350 | 31119 ft | 449 kts | 200° |
| 2026-05-07 08:03 | 50.98966 | 20.15780 | 31536 ft | 447 kts | 200° |
| 2026-05-07 08:03 | 50.96014 | 20.14210 | 31953 ft | 446 kts | 200° |
| 2026-05-07 08:03 | 50.93107 | 20.12668 | 32350 ft | 445 kts | 200° |
| 2026-05-07 08:03 | 50.90175 | 20.11114 | 32762 ft | 444 kts | 200° |
| 2026-05-07 08:04 | 50.87213 | 20.09546 | 33162 ft | 443 kts | 200° |
| 2026-05-07 08:04 | 50.84329 | 20.08019 | 33549 ft | 441 kts | 200° |
| 2026-05-07 08:04 | 50.81419 | 20.06482 | 33932 ft | 441 kts | 200° |
| 2026-05-07 08:04 | 50.78499 | 20.04952 | 34316 ft | 439 kts | 199° |
| 2026-05-07 08:05 | 50.75596 | 20.03476 | 34678 ft | 439 kts | 199° |
| 2026-05-07 08:05 | 50.72680 | 20.02023 | 35008 ft | 439 kts | 199° |
| 2026-05-07 08:05 | 50.69765 | 20.00570 | 35341 ft | 439 kts | 199° |
| 2026-05-07 08:05 | 50.66857 | 19.99106 | 35663 ft | 438 kts | 199° |
| 2026-05-07 08:06 | 50.63954 | 19.97631 | 35892 ft | 440 kts | 199° |
| 2026-05-07 08:06 | 50.58071 | 19.94655 | 35901 ft | 446 kts | 199° |
| 2026-05-07 08:07 | 50.52159 | 19.91691 | 35902 ft | 445 kts | 199° |
| 2026-05-07 08:07 | 50.46289 | 19.88753 | 35905 ft | 445 kts | 199° |
| 2026-05-07 08:08 | 50.40385 | 19.85799 | 35904 ft | 445 kts | 199° |
| 2026-05-07 08:08 | 50.34479 | 19.82857 | 35903 ft | 445 kts | 199° |
| 2026-05-07 08:09 | 50.28574 | 19.79922 | 35906 ft | 446 kts | 199° |
| 2026-05-07 08:09 | 50.22659 | 19.76988 | 35907 ft | 445 kts | 199° |
| 2026-05-07 08:10 | 50.16749 | 19.74067 | 35910 ft | 445 kts | 199° |
| 2026-05-07 08:10 | 50.10835 | 19.71148 | 35905 ft | 445 kts | 199° |
| 2026-05-07 08:11 | 50.04963 | 19.68260 | 35905 ft | 445 kts | 199° |
| 2026-05-07 08:11 | 49.99050 | 19.65358 | 35904 ft | 445 kts | 199° |
| 2026-05-07 08:12 | 49.93137 | 19.62464 | 35904 ft | 445 kts | 199° |
| 2026-05-07 08:12 | 49.87226 | 19.59579 | 35904 ft | 445 kts | 199° |
| 2026-05-07 08:13 | 49.81315 | 19.56700 | 35908 ft | 445 kts | 199° |
| 2026-05-07 08:13 | 49.75406 | 19.53831 | 35912 ft | 445 kts | 199° |
| 2026-05-07 08:14 | 49.69495 | 19.50967 | 35909 ft | 445 kts | 199° |
| 2026-05-07 08:14 | 49.63617 | 19.48174 | 35914 ft | 445 kts | 195° |
| 2026-05-07 08:14 | 49.60548 | 19.47451 | 35928 ft | 447 kts | 184° |
| 2026-05-07 08:15 | 49.57423 | 19.47639 | 35944 ft | 450 kts | 176° |
| 2026-05-07 08:15 | 49.51203 | 19.48781 | 35938 ft | 451 kts | 174° |
| 2026-05-07 08:16 | 49.44991 | 19.50012 | 35936 ft | 452 kts | 175° |
| 2026-05-07 08:16 | 49.38735 | 19.51161 | 35923 ft | 452 kts | 175° |
| 2026-05-07 08:17 | 49.32491 | 19.52318 | 35936 ft | 452 kts | 175° |
| 2026-05-07 08:17 | 49.26248 | 19.53494 | 35944 ft | 452 kts | 175° |
| 2026-05-07 08:18 | 49.20007 | 19.54651 | 35947 ft | 452 kts | 175° |
| 2026-05-07 08:18 | 49.13763 | 19.55805 | 35958 ft | 452 kts | 175° |
| 2026-05-07 08:19 | 49.07550 | 19.56958 | 35952 ft | 452 kts | 175° |
| 2026-05-07 08:19 | 49.01315 | 19.58109 | 35961 ft | 451 kts | 175° |
| 2026-05-07 08:20 | 48.95080 | 19.59257 | 35946 ft | 451 kts | 175° |
| 2026-05-07 08:20 | 48.88856 | 19.60397 | 35966 ft | 451 kts | 175° |
| 2026-05-07 08:21 | 48.82620 | 19.61538 | 35968 ft | 452 kts | 175° |
| 2026-05-07 08:21 | 48.76361 | 19.62720 | 35968 ft | 453 kts | 173° |
| 2026-05-07 08:22 | 48.70201 | 19.64622 | 35968 ft | 456 kts | 168° |
| 2026-05-07 08:22 | 48.64021 | 19.66743 | 35966 ft | 454 kts | 171° |
| 2026-05-07 08:22 | 48.60937 | 19.67650 | 35797 ft | 447 kts | 171° |
| 2026-05-07 08:23 | 48.57888 | 19.68521 | 35057 ft | 447 kts | 171° |
| 2026-05-07 08:23 | 48.54830 | 19.69422 | 34311 ft | 448 kts | 171° |
| 2026-05-07 08:23 | 48.51778 | 19.70363 | 33517 ft | 448 kts | 170° |
| 2026-05-07 08:23 | 48.48721 | 19.71323 | 32662 ft | 449 kts | 170° |
| 2026-05-07 08:24 | 48.45652 | 19.72275 | 31769 ft | 451 kts | 171° |
| 2026-05-07 08:24 | 48.42571 | 19.73211 | 30816 ft | 453 kts | 171° |
| 2026-05-07 08:24 | 48.39465 | 19.74146 | 29806 ft | 455 kts | 171° |
| 2026-05-07 08:24 | 48.36352 | 19.75084 | 28745 ft | 457 kts | 171° |
| 2026-05-07 08:25 | 48.33228 | 19.76030 | 27575 ft | 460 kts | 171° |
| 2026-05-07 08:25 | 48.30124 | 19.76973 | 26335 ft | 463 kts | 171° |
| 2026-05-07 08:25 | 48.26954 | 19.77934 | 25211 ft | 463 kts | 170° |
| 2026-05-07 08:25 | 48.23817 | 19.78885 | 24247 ft | 458 kts | 170° |
| 2026-05-07 08:26 | 48.17613 | 19.80219 | 22269 ft | 443 kts | 182° |
| 2026-05-07 08:26 | 48.14572 | 19.79760 | 21318 ft | 435 kts | 192° |
| 2026-05-07 08:26 | 48.11642 | 19.78780 | 20358 ft | 428 kts | 194° |
| 2026-05-07 08:27 | 48.08756 | 19.77756 | 19418 ft | 423 kts | 195° |
| 2026-05-07 08:27 | 48.05921 | 19.76719 | 18482 ft | 417 kts | 195° |
| 2026-05-07 08:27 | 48.03123 | 19.75703 | 17549 ft | 411 kts | 194° |
| 2026-05-07 08:27 | 48.00357 | 19.74721 | 16627 ft | 405 kts | 194° |
| 2026-05-07 08:28 | 47.97631 | 19.73766 | 15707 ft | 400 kts | 194° |
| 2026-05-07 08:28 | 47.94942 | 19.72824 | 14800 ft | 394 kts | 194° |
| 2026-05-07 08:28 | 47.92282 | 19.71887 | 13888 ft | 389 kts | 194° |
| 2026-05-07 08:28 | 47.89667 | 19.70961 | 13001 ft | 384 kts | 194° |
| 2026-05-07 08:29 | 47.87081 | 19.70047 | 12114 ft | 380 kts | 194° |
| 2026-05-07 08:29 | 47.84559 | 19.69157 | 11243 ft | 375 kts | 194° |
| 2026-05-07 08:29 | 47.82036 | 19.68270 | 10348 ft | 371 kts | 194° |
| 2026-05-07 08:29 | 47.79542 | 19.67393 | 9777 ft | 361 kts | 194° |
| 2026-05-07 08:30 | 47.77155 | 19.66558 | 9432 ft | 345 kts | 194° |
| 2026-05-07 08:30 | 47.74860 | 19.65759 | 9165 ft | 330 kts | 194° |
| 2026-05-07 08:30 | 47.72670 | 19.64988 | 8950 ft | 315 kts | 194° |
| 2026-05-07 08:30 | 47.70587 | 19.64253 | 8793 ft | 301 kts | 194° |
| 2026-05-07 08:31 | 47.68592 | 19.63555 | 8680 ft | 287 kts | 194° |
| 2026-05-07 08:31 | 47.66708 | 19.62898 | 8593 ft | 272 kts | 194° |
| 2026-05-07 08:31 | 47.64891 | 19.62264 | 8302 ft | 266 kts | 194° |
| 2026-05-07 08:31 | 47.63095 | 19.61638 | 7948 ft | 264 kts | 194° |
| 2026-05-07 08:32 | 47.61309 | 19.61015 | 7590 ft | 262 kts | 194° |
| 2026-05-07 08:32 | 47.59561 | 19.60407 | 7234 ft | 261 kts | 194° |
| 2026-05-07 08:32 | 47.57794 | 19.59789 | 6882 ft | 260 kts | 194° |
| 2026-05-07 08:32 | 47.56037 | 19.59178 | 6536 ft | 259 kts | 194° |
| 2026-05-07 08:33 | 47.54290 | 19.58573 | 6189 ft | 257 kts | 194° |
| 2026-05-07 08:33 | 47.52551 | 19.57968 | 5860 ft | 256 kts | 194° |
| 2026-05-07 08:33 | 47.50823 | 19.57363 | 5517 ft | 254 kts | 194° |
| 2026-05-07 08:33 | 47.49103 | 19.56762 | 5175 ft | 253 kts | 194° |
| 2026-05-07 08:34 | 47.47387 | 19.56170 | 4844 ft | 253 kts | 194° |
| 2026-05-07 08:34 | 47.45681 | 19.55582 | 4492 ft | 251 kts | 194° |
| 2026-05-07 08:34 | 47.43978 | 19.54995 | 4161 ft | 251 kts | 194° |
| 2026-05-07 08:34 | 47.42283 | 19.54407 | 3839 ft | 249 kts | 194° |
| 2026-05-07 08:35 | 47.40593 | 19.53821 | 3521 ft | 248 kts | 194° |
| 2026-05-07 08:35 | 47.38916 | 19.53243 | 3270 ft | 243 kts | 194° |
| 2026-05-07 08:35 | 47.37349 | 19.52700 | 3096 ft | 225 kts | 194° |
| 2026-05-07 08:35 | 47.35906 | 19.52203 | 3069 ft | 201 kts | 194° |
| 2026-05-07 08:36 | 47.34585 | 19.51749 | 3052 ft | 189 kts | 194° |
| 2026-05-07 08:36 | 47.33342 | 19.51320 | 3059 ft | 182 kts | 194° |
| 2026-05-07 08:36 | 47.32152 | 19.50907 | 3048 ft | 176 kts | 194° |
| 2026-05-07 08:36 | 47.31039 | 19.50346 | 2989 ft | 169 kts | 219° |
| 2026-05-07 08:37 | 47.30555 | 19.48840 | 3026 ft | 168 kts | 271° |
| 2026-05-07 08:37 | 47.31085 | 19.47316 | 3038 ft | 171 kts | 315° |
| 2026-05-07 08:37 | 47.31934 | 19.46062 | 3036 ft | 171 kts | 311° |
| 2026-05-07 08:37 | 47.32747 | 19.44791 | 3052 ft | 172 kts | 311° |
| 2026-05-07 08:38 | 47.33282 | 19.43941 | 3000 ft | 169 kts | 310° |
| 2026-05-07 08:38 | 47.34335 | 19.42251 | 2817 ft | 163 kts | 310° |
| 2026-05-07 08:38 | 47.35121 | 19.40960 | 2640 ft | 176 kts | 309° |
| 2026-05-07 08:38 | 47.35940 | 19.39640 | 2117 ft | 171 kts | 311° |
| 2026-05-07 08:39 | 47.36471 | 19.38787 | 1841 ft | 163 kts | 310° |
| 2026-05-07 08:39 | 47.37191 | 19.37589 | 1571 ft | 157 kts | 310° |
| 2026-05-07 08:39 | 47.37900 | 19.36426 | 1354 ft | 152 kts | 311° |
| 2026-05-07 08:39 | 47.38609 | 19.35314 | 1173 ft | 148 kts | 312° |
| 2026-05-07 08:40 | 47.39308 | 19.34214 | 1059 ft | 146 kts | 311° |
| 2026-05-07 08:40 | 47.39975 | 19.33082 | 962 ft | 146 kts | 309° |
| 2026-05-07 08:40 | 47.40643 | 19.31953 | 833 ft | 146 kts | 311° |
| 2026-05-07 08:40 | 47.41355 | 19.30883 | 677 ft | 145 kts | 313° |
| 2026-05-07 08:41 | 47.42040 | 19.29791 | 531 ft | 145 kts | 311° |
| 2026-05-07 08:41 | 47.42709 | 19.28709 | 448 ft | 138 kts | 311° |
| 2026-05-07 08:41 | 47.43279 | 19.27795 | 463 ft | 87 kts | 313° |
| 2026-05-07 08:41 | 47.43618 | 19.27249 | 469 ft | 48 kts | 311° |
| 2026-05-07 08:42 | 47.43740 | 19.26917 | 470 ft | 28 kts | 283° |
| 2026-05-07 08:42 | 47.43789 | 19.26617 | 459 ft | 31 kts | 282° |
| 2026-05-07 08:42 | 47.43730 | 19.26390 | 457 ft | 24 kts | 223° |
| 2026-05-07 08:42 | 47.43611 | 19.26439 | 456 ft | 20 kts | 134° |
| 2026-05-07 08:43 | 47.43545 | 19.26446 | 457 ft | 7 kts | 221° |
| 2026-05-07 08:43 | 47.43541 | 19.26442 | 457 ft | 0 kts | 221° |